Terminal Aerodrome Forecast
Issued by NWS

Home | Current Version | Previous Version | Text Only | Print | Product List | Glossary On
Versions: 1 2 3 4 5 6 7 8 9 10 11 12 13 14 15 16
000
FTUS43 KMQT 222320
TAFIWD
TAF
KIWD 222320Z 2300/2324 04013G24KT 3/4SM -SN OVC003
     FM230300 03013G24KT 2SM -SN OVC003
     FM230600 02011G19KT 3SM -SN OVC003
     FM231400 36011G20KT 4SM -SHSN BKN008
     FM231500 36012G21KT P6SM BKN008
     FM231800 35010KT P6SM BKN010
     FM232000 35009KT P6SM BKN025
     FM232300 36005KT P6SM SCT140=

USA.gov is the U.S. government's official web portal to all federal, state and local government web resources and services.